createdAt,value
2019-05-03T00:02:23.182Z,10.70
2019-05-03T00:07:14.068Z,10.70
2019-05-03T00:12:04.958Z,10.50
2019-05-03T00:16:56.611Z,10.40
2019-05-03T00:21:47.515Z,10.30
2019-05-03T00:26:39.140Z,11.00
2019-05-03T00:31:31.888Z,10.80
2019-05-03T00:36:22.425Z,10.80
2019-05-03T00:41:12.652Z,10.60
2019-05-03T00:46:03.536Z,10.30
2019-05-03T00:50:55.187Z,10.00
2019-05-03T00:55:46.078Z,10.00
2019-05-03T01:00:36.977Z,10.40
2019-05-03T01:05:27.862Z,10.80
2019-05-03T01:10:18.755Z,10.70
2019-05-03T01:15:09.650Z,10.40
2019-05-03T01:20:02.529Z,10.20
2019-05-03T01:24:52.219Z,9.80
2019-05-03T01:29:43.860Z,10.10
2019-05-03T01:34:35.523Z,10.60
2019-05-03T01:39:26.430Z,10.60
2019-05-03T01:44:17.322Z,10.50
2019-05-03T01:49:08.967Z,10.00
2019-05-03T01:54:01.699Z,9.80
2019-05-03T01:58:52.396Z,9.70
2019-05-03T02:03:42.455Z,9.60
2019-05-03T02:08:33.351Z,9.60
2019-05-03T02:13:25.017Z,10.20
2019-05-03T02:18:15.923Z,10.20
2019-05-03T02:23:06.814Z,10.00
2019-05-03T02:27:58.463Z,9.60
2019-05-03T02:32:53.156Z,9.40
2019-05-03T02:37:43.707Z,9.30
2019-05-03T02:42:32.117Z,9.20
2019-05-03T02:47:30.150Z,9.50
2019-05-03T02:52:27.295Z,10.00
2019-05-03T02:57:18.195Z,9.90
2019-05-03T03:02:09.839Z,9.30
2019-05-03T03:07:01.484Z,9.10
2019-05-03T03:11:55.661Z,9.00
2019-05-03T03:16:45.509Z,8.90
2019-05-03T03:21:36.207Z,9.50
2019-05-03T03:26:37.143Z,9.50
2019-05-03T03:31:22.332Z,9.60
2019-05-03T03:36:43.282Z,9.30
2019-05-03T03:41:05.810Z,9.00
2019-05-03T03:45:55.675Z,8.80
2019-05-03T03:50:46.011Z,8.60
2019-05-03T03:55:36.903Z,8.40
2019-05-03T04:00:28.550Z,9.10
2019-05-03T04:05:19.446Z,9.10
2019-05-03T04:10:10.345Z,8.90
2019-05-03T04:15:05.608Z,8.60
2019-05-03T04:19:55.924Z,8.30
2019-05-03T04:24:45.907Z,8.10
2019-05-03T04:29:36.072Z,7.90
2019-05-03T04:34:26.993Z,8.10
2019-05-03T04:39:20.262Z,8.60
2019-05-03T04:44:08.856Z,8.60
2019-05-03T04:49:00.499Z,8.10
2019-05-03T04:53:52.188Z,7.90
2019-05-03T04:58:45.691Z,7.90
2019-05-03T05:03:36.118Z,7.80
2019-05-03T05:08:25.682Z,8.00
2019-05-03T05:13:16.591Z,8.00
2019-05-03T05:18:09.407Z,8.50
2019-05-03T05:23:00.323Z,8.40
2019-05-03T05:27:57.382Z,8.10
2019-05-03T05:32:48.273Z,7.90
2019-05-03T05:37:39.175Z,7.80
2019-05-03T05:42:30.078Z,7.60
2019-05-03T05:47:25.411Z,7.60
2019-05-03T05:52:15.443Z,8.10
2019-05-03T05:57:12.123Z,8.60
2019-05-03T06:02:04.830Z,8.50
2019-05-03T06:06:56.847Z,8.20
2019-05-03T06:11:48.707Z,8.00
2019-05-03T06:16:40.579Z,7.90
2019-05-03T06:21:35.325Z,7.90
2019-05-03T06:26:34.517Z,7.90
2019-05-03T06:31:25.293Z,8.80
2019-05-03T06:36:15.263Z,8.80
2019-05-03T06:41:05.870Z,8.70
2019-05-03T06:45:56.771Z,8.60
2019-05-03T06:50:47.680Z,8.50
2019-05-03T06:55:40.048Z,8.40
2019-05-03T07:00:35.686Z,8.40
2019-05-03T07:05:26.597Z,8.70
2019-05-03T07:10:18.471Z,9.40
2019-05-03T07:15:09.486Z,9.50
2019-05-03T07:20:00.394Z,9.40
2019-05-03T07:24:51.298Z,9.20
2019-05-03T07:29:42.195Z,9.20
2019-05-03T07:34:34.932Z,9.20
2019-05-03T07:39:24.563Z,9.20
2019-05-03T07:44:15.295Z,9.60
2019-05-03T07:49:05.866Z,10.30
2019-05-03T07:53:56.791Z,10.30
2019-05-03T07:58:59.538Z,10.10
2019-05-03T08:03:38.677Z,10.00
2019-05-03T08:08:29.570Z,9.90
2019-05-03T08:13:20.469Z,9.90
2019-05-03T08:18:11.411Z,10.20
2019-05-03T08:23:02.323Z,10.80
2019-05-03T08:27:54.882Z,10.90
2019-05-03T08:32:45.023Z,10.80
2019-05-03T08:37:35.926Z,10.60
2019-05-03T08:42:26.849Z,10.50
2019-05-03T08:47:17.747Z,10.50
2019-05-03T08:52:08.647Z,10.50
2019-05-03T08:56:59.560Z,11.00
2019-05-03T09:01:50.463Z,11.50
2019-05-03T09:06:41.358Z,11.40
2019-05-03T09:11:34.833Z,11.20
2019-05-03T09:16:25.145Z,11.00
2019-05-03T09:21:14.945Z,11.00
2019-05-03T09:26:06.489Z,11.40
2019-05-03T09:30:58.137Z,11.90
2019-05-03T09:35:49.163Z,11.90
2019-05-03T09:40:40.075Z,11.90
2019-05-03T09:45:30.966Z,11.70
2019-05-03T09:50:24.587Z,11.50
2019-05-03T09:55:19.446Z,11.50
2019-05-03T10:00:10.339Z,11.40
2019-05-03T10:05:01.235Z,11.80
2019-05-03T10:09:52.127Z,12.40
2019-05-03T10:14:45.171Z,12.30
2019-05-03T10:19:39.830Z,12.30
2019-05-03T10:24:25.643Z,12.20
2019-05-03T10:29:16.539Z,12.10
2019-05-03T10:34:07.503Z,12.10
2019-05-03T10:38:58.407Z,12.50
2019-05-03T10:43:49.311Z,13.10
2019-05-03T10:48:40.308Z,13.20
2019-05-03T10:53:31.135Z,13.10
2019-05-03T10:58:22.186Z,13.00
2019-05-03T11:03:13.726Z,12.90
2019-05-03T11:08:05.039Z,12.80
2019-05-03T11:12:55.573Z,13.10
2019-05-03T11:17:46.459Z,13.60
2019-05-03T11:22:37.350Z,13.70
2019-05-03T11:27:28.283Z,13.60
2019-05-03T11:32:22.276Z,13.50
2019-05-03T11:37:15.215Z,13.40
2019-05-03T11:42:06.863Z,14.10
2019-05-03T11:46:58.027Z,14.10
2019-05-03T11:51:48.975Z,14.70
2019-05-03T11:56:41.383Z,14.90
2019-05-03T12:01:32.307Z,14.90
2019-05-03T12:06:24.928Z,15.10
2019-05-03T12:11:15.129Z,15.20
2019-05-03T12:16:15.833Z,15.50
2019-05-03T12:20:57.565Z,16.10
2019-05-03T12:25:47.538Z,16.10
2019-05-03T12:30:37.839Z,16.00
2019-05-03T12:35:28.731Z,15.90
2019-05-03T12:40:19.638Z,15.90
2019-05-03T12:45:10.538Z,16.10
2019-05-03T12:50:02.170Z,16.80
2019-05-03T12:54:55.171Z,16.50
2019-05-03T12:59:45.131Z,16.50
2019-05-03T13:04:39.712Z,16.20
2019-05-03T13:09:30.625Z,16.00
2019-05-03T13:14:21.531Z,15.60
2019-05-03T13:19:12.487Z,15.60
2019-05-03T13:24:05.496Z,15.50
2019-05-03T13:28:55.422Z,15.50
2019-05-03T13:33:46.859Z,14.90
2019-05-03T13:38:37.779Z,14.90
2019-05-03T13:43:28.691Z,14.60
2019-05-03T13:48:20.956Z,14.50
2019-05-03T13:53:10.511Z,15.00
2019-05-03T13:58:01.406Z,15.20
2019-05-03T14:02:52.302Z,15.00
2019-05-03T14:07:44.689Z,14.70
2019-05-03T14:12:35.138Z,14.30
2019-05-03T14:17:25.855Z,14.30
2019-05-03T14:22:16.764Z,14.50
2019-05-03T14:27:07.672Z,14.80
2019-05-03T14:31:58.583Z,14.50
2019-05-03T14:36:49.591Z,14.10
2019-05-03T14:41:40.479Z,13.90
2019-05-03T14:46:33.280Z,13.60
2019-05-03T14:51:38.031Z,14.20
2019-05-03T14:56:31.914Z,14.10
2019-05-03T15:01:24.788Z,14.10
2019-05-03T15:06:15.494Z,13.80
2019-05-03T15:11:05.678Z,13.50
2019-05-03T15:15:56.578Z,13.30
2019-05-03T15:20:47.482Z,13.30
2019-05-03T15:25:38.379Z,13.80
2019-05-03T15:30:30.018Z,13.40
2019-05-03T15:35:21.655Z,13.10
2019-05-03T15:40:12.644Z,13.10
2019-05-03T15:50:25.104Z,12.60
2019-05-03T15:55:15.209Z,13.00
2019-05-03T16:00:05.552Z,13.40
2019-05-03T16:04:58.720Z,12.90
2019-05-03T16:09:47.891Z,12.90
2019-05-03T16:14:39.545Z,12.50
2019-05-03T16:19:30.444Z,12.40
2019-05-03T16:24:22.088Z,13.00
2019-05-03T16:29:14.962Z,12.90
2019-05-03T16:34:04.287Z,13.10
2019-05-03T16:38:55.440Z,12.90
2019-05-03T16:43:45.776Z,12.70
2019-05-03T16:48:36.679Z,12.50
2019-05-03T16:53:27.587Z,12.30
2019-05-03T16:58:19.227Z,12.90
2019-05-03T17:03:10.867Z,12.80
2019-05-03T17:08:08.619Z,12.50
2019-05-03T17:12:59.671Z,12.50
2019-05-03T17:17:51.324Z,12.00
2019-05-03T17:22:42.223Z,11.90
2019-05-03T17:27:34.338Z,11.80
2019-05-03T17:32:24.543Z,12.00
2019-05-03T17:37:15.055Z,12.40
2019-05-03T17:42:05.967Z,12.20
2019-05-03T17:46:56.879Z,12.00
2019-05-03T17:51:47.779Z,11.70
2019-05-03T17:56:44.656Z,11.50
2019-05-03T18:01:41.876Z,11.50
2019-05-03T18:06:34.666Z,11.50
2019-05-03T18:11:28.662Z,12.00
2019-05-03T18:16:19.655Z,11.90
2019-05-03T18:21:10.550Z,11.60
2019-05-03T18:26:02.178Z,11.10
2019-05-03T18:30:54.740Z,10.90
2019-05-03T18:35:45.567Z,11.30
2019-05-03T18:40:36.479Z,11.30
2019-05-03T18:45:29.016Z,11.40
2019-05-03T18:50:19.919Z,11.40
2019-05-03T18:55:10.815Z,11.10
2019-05-03T19:00:01.732Z,10.90
2019-05-03T19:04:54.437Z,10.70
2019-05-03T19:09:45.567Z,10.60
2019-05-03T19:14:37.206Z,11.20
2019-05-03T19:19:28.851Z,11.00
2019-05-03T19:24:19.855Z,11.00
2019-05-03T19:29:14.749Z,10.50
2019-05-03T19:34:03.443Z,10.50
2019-05-03T19:38:54.704Z,10.30
2019-05-03T19:43:45.282Z,10.20
2019-05-03T19:48:36.926Z,11.00
2019-05-03T19:53:44.256Z,10.90
2019-05-03T19:58:35.320Z,10.80
2019-05-03T20:03:27.713Z,10.50
2019-05-03T20:08:18.610Z,10.20
2019-05-03T20:13:10.247Z,9.90
2019-05-03T20:18:01.147Z,9.90
2019-05-03T20:22:52.042Z,10.30
2019-05-03T20:27:44.497Z,10.70
2019-05-03T20:32:34.473Z,10.50
2019-05-03T20:37:25.118Z,10.20
2019-05-03T20:42:15.802Z,9.90
2019-05-03T20:47:14.843Z,9.70
2019-05-03T20:52:03.727Z,9.50
2019-05-03T20:56:55.372Z,10.30
2019-05-03T21:01:47.023Z,10.10
2019-05-03T21:06:37.938Z,10.10
2019-05-03T21:11:28.839Z,9.90
2019-05-03T21:16:22.416Z,9.50
2019-05-03T21:21:28.198Z,9.30
2019-05-03T21:26:16.867Z,9.30
2019-05-03T21:31:07.704Z,9.60
2019-05-03T21:35:58.607Z,10.10
2019-05-03T21:40:49.514Z,10.00
2019-05-03T21:45:45.335Z,9.50
2019-05-03T21:50:35.378Z,9.50
2019-05-03T21:55:25.952Z,9.30
2019-05-03T22:00:17.662Z,9.10
2019-05-03T22:05:09.311Z,9.60
2019-05-03T22:10:00.208Z,9.60
2019-05-03T22:14:51.130Z,9.80
2019-05-03T22:19:42.035Z,9.50
2019-05-03T22:24:35.740Z,9.30
2019-05-03T22:29:27.395Z,8.90
2019-05-03T22:34:19.043Z,8.80
2019-05-03T22:39:10.695Z,9.10
2019-05-03T22:44:01.591Z,9.10
2019-05-03T22:48:55.104Z,9.50
2019-05-03T22:53:44.832Z,9.50
2019-05-03T22:58:35.880Z,9.10
2019-05-03T23:03:27.522Z,8.90
2019-05-03T23:08:19.167Z,8.70
2019-05-03T23:13:10.079Z,8.70
2019-05-03T23:18:01.728Z,9.30
2019-05-03T23:22:54.326Z,9.30
2019-05-03T23:27:44.497Z,9.40
2019-05-03T23:32:35.305Z,9.00
2019-05-03T23:37:26.202Z,8.90
2019-05-03T23:42:17.126Z,8.80
2019-05-03T23:47:08.822Z,8.50
2019-05-03T23:52:00.518Z,8.40
2019-05-03T23:56:51.423Z,8.80
